Time;durP1;ratioP1;P1;durP2;ratioP2;P2;SDS_P1;SDS_P2;PMS_P1;PMS_P2;Temp;Humidity;BMP_temperature;BMP_pressure;BME280_temperature;BME280_humidity;BME280_pressure;Samples;Min_cycle;Max_cycle;Signal;HPM_P1;HPM_P2
2023/05/17 00:00:09;;;;;;;0.00;0.00;;;;;;;;;;1748845;28;20240;-64
2023/05/17 00:01:01;;;;;;;0.00;0.00;;;;;;;;;;1751793;28;20205;-64
2023/05/17 00:01:52;;;;;;;0.00;0.00;;;;;;;;;;1752630;28;20275;-65
2023/05/17 00:02:44;;;;;;;0.00;0.00;;;;;;;;;;1751902;28;20198;-66
2023/05/17 00:03:35;;;;;;;0.00;0.00;;;;;;;;;;1748129;28;20597;-64
2023/05/17 00:04:27;;;;;;;0.00;0.00;;;;;;;;;;1747452;28;20201;-64
2023/05/17 00:05:18;;;;;;;0.00;0.00;;;;;;;;;;1747760;28;20205;-64
2023/05/17 00:06:10;;;;;;;0.00;0.00;;;;;;;;;;1747629;28;20832;-64
2023/05/17 00:07:01;;;;;;;0.20;0.20;;;;;;;;;;1747481;28;20203;-65
2023/05/17 00:07:53;;;;;;;0.00;0.00;;;;;;;;;;1750513;28;20197;-64
2023/05/17 00:08:44;;;;;;;0.00;0.00;;;;;;;;;;1747091;28;20249;-64
2023/05/17 00:09:36;;;;;;;0.00;0.00;;;;;;;;;;1748900;28;20296;-64
2023/05/17 00:10:27;;;;;;;0.10;0.10;;;;;;;;;;1746784;28;20695;-64
2023/05/17 00:11:19;;;;;;;0.00;0.00;;;;;;;;;;1750030;28;21472;-64
2023/05/17 00:12:10;;;;;;;0.00;0.00;;;;;;;;;;1746129;28;20260;-64
2023/05/17 00:13:02;;;;;;;0.00;0.00;;;;;;;;;;1749332;28;20260;-64
2023/05/17 00:13:53;;;;;;;0.00;0.00;;;;;;;;;;1745528;28;20233;-66
2023/05/17 00:14:46;;;;;;;0.00;0.00;;;;;;;;;;1749674;28;20339;-64
2023/05/17 00:15:37;;;;;;;0.00;0.00;;;;;;;;;;1746847;28;20205;-64
2023/05/17 00:16:29;;;;;;;0.00;0.00;;;;;;;;;;1750826;28;20263;-62
2023/05/17 00:17:20;;;;;;;0.00;0.00;;;;;;;;;;1745805;28;20697;-64
2023/05/17 00:18:12;;;;;;;0.00;0.00;;;;;;;;;;1749422;28;20208;-64
2023/05/17 00:19:03;;;;;;;0.00;0.00;;;;;;;;;;1750394;28;20209;-64
2023/05/17 00:19:55;;;;;;;0.00;0.00;;;;;;;;;;1749725;28;20646;-64
2023/05/17 00:20:46;;;;;;;0.08;0.08;;;;;;;;;;1747745;28;20210;-64
2023/05/17 00:21:38;;;;;;;0.00;0.00;;;;;;;;;;1751066;28;20201;-64
2023/05/17 00:22:30;;;;;;;0.00;0.00;;;;;;;;;;1751992;28;20278;-63
2023/05/17 00:23:21;;;;;;;0.00;0.00;;;;;;;;;;1749818;28;20564;-64
2023/05/17 00:24:13;;;;;;;0.00;0.00;;;;;;;;;;1751181;28;20235;-64
2023/05/17 00:25:05;;;;;;;0.00;0.00;;;;;;;;;;1748607;28;20196;-63
2023/05/17 00:25:56;;;;;;;0.00;0.00;;;;;;;;;;1749296;28;20217;-65
2023/05/17 00:26:47;;;;;;;0.00;0.00;;;;;;;;;;1751098;28;20210;-64
2023/05/17 00:27:39;;;;;;;0.00;0.00;;;;;;;;;;1751844;28;20336;-63
2023/05/17 00:28:30;;;;;;;0.00;0.00;;;;;;;;;;1748513;28;20627;-64
2023/05/17 00:29:22;;;;;;;0.00;0.00;;;;;;;;;;1747576;28;20274;-65
2023/05/17 00:30:14;;;;;;;0.00;0.00;;;;;;;;;;1747241;28;20611;-62
2023/05/17 00:31:06;;;;;;;0.00;0.00;;;;;;;;;;1749824;28;20268;-64
2023/05/17 00:31:57;;;;;;;0.00;0.00;;;;;;;;;;1751637;28;20205;-65
2023/05/17 00:32:49;;;;;;;0.00;0.00;;;;;;;;;;1751048;28;20213;-64
2023/05/17 00:33:40;;;;;;;0.00;0.00;;;;;;;;;;1747373;28;20671;-64
2023/05/17 00:34:32;;;;;;;0.00;0.00;;;;;;;;;;1747992;28;20224;-64
2023/05/17 00:35:23;;;;;;;0.00;0.00;;;;;;;;;;1750696;28;20205;-65
2023/05/17 00:36:15;;;;;;;0.00;0.00;;;;;;;;;;1749472;28;20205;-65
2023/05/17 00:37:06;;;;;;;0.00;0.00;;;;;;;;;;1751576;28;20747;-65
2023/05/17 00:37:58;;;;;;;0.00;0.00;;;;;;;;;;1751055;28;20391;-65
2023/05/17 00:38:49;;;;;;;0.00;0.00;;;;;;;;;;1748993;28;20617;-65
2023/05/17 00:39:41;;;;;;;0.00;0.00;;;;;;;;;;1751060;28;20259;-66
2023/05/17 00:40:32;;;;;;;0.00;0.00;;;;;;;;;;1745699;28;20209;-65
2023/05/17 00:41:23;;;;;;;0.00;0.00;;;;;;;;;;1749778;28;20474;-65
2023/05/17 00:42:15;;;;;;;0.00;0.00;;;;;;;;;;1751762;28;20212;-66
2023/05/17 00:43:06;;;;;;;0.00;0.00;;;;;;;;;;1749858;28;20207;-65
2023/05/17 00:43:58;;;;;;;0.00;0.00;;;;;;;;;;1745219;28;20268;-65
2023/05/17 00:44:49;;;;;;;0.00;0.00;;;;;;;;;;1749748;28;20237;-65
2023/05/17 00:45:43;;;;;;;0.00;0.00;;;;;;;;;;1745031;28;20228;-65
2023/05/17 00:46:34;;;;;;;0.00;0.00;;;;;;;;;;1750218;28;20436;-66
2023/05/17 00:47:26;;;;;;;0.00;0.00;;;;;;;;;;1745380;28;20541;-65
2023/05/17 00:48:19;;;;;;;0.00;0.00;;;;;;;;;;1750396;28;20216;-65
2023/05/17 00:49:11;;;;;;;0.00;0.00;;;;;;;;;;1745766;28;20663;-65
2023/05/17 00:50:02;;;;;;;0.00;0.00;;;;;;;;;;1749291;28;20644;-67
2023/05/17 00:50:55;;;;;;;0.00;0.00;;;;;;;;;;1748449;28;20209;-66
2023/05/17 00:51:46;;;;;;;0.00;0.00;;;;;;;;;;1751338;28;20299;-65
2023/05/17 00:52:38;;;;;;;0.00;0.00;;;;;;;;;;1751730;28;20201;-65
2023/05/17 00:53:29;;;;;;;0.00;0.00;;;;;;;;;;1748656;28;20209;-64
2023/05/17 00:54:21;;;;;;;0.00;0.00;;;;;;;;;;1746843;28;20544;-65
2023/05/17 00:55:12;;;;;;;0.00;0.00;;;;;;;;;;1751171;28;20264;-64
2023/05/17 00:56:05;;;;;;;0.00;0.00;;;;;;;;;;1751175;28;20209;-65
2023/05/17 00:56:58;;;;;;;0.00;0.00;;;;;;;;;;1747802;28;20240;-65
2023/05/17 00:57:49;;;;;;;0.10;0.10;;;;;;;;;;1747276;28;20212;-65
2023/05/17 00:58:41;;;;;;;0.00;0.00;;;;;;;;;;1747086;28;20202;-67
2023/05/17 00:59:32;;;;;;;0.00;0.00;;;;;;;;;;1747851;28;20668;-66
2023/05/17 01:00:24;;;;;;;0.00;0.00;;;;;;;;;;1746916;28;20323;-65
2023/05/17 01:01:16;;;;;;;0.00;0.00;;;;;;;;;;1750690;28;20255;-66
2023/05/17 01:02:08;;;;;;;0.00;0.00;;;;;;;;;;1756262;28;20223;-65
2023/05/17 01:03:00;;;;;;;0.08;0.08;;;;;;;;;;1751484;28;20211;-65
2023/05/17 01:03:52;;;;;;;0.00;0.00;;;;;;;;;;1745283;28;20202;-65
2023/05/17 01:04:43;;;;;;;0.00;0.00;;;;;;;;;;1749204;28;20665;-64
2023/05/17 01:05:35;;;;;;;0.00;0.00;;;;;;;;;;1745282;28;20705;-65
2023/05/17 01:06:26;;;;;;;0.00;0.00;;;;;;;;;;1750339;28;20668;-66
2023/05/17 01:07:18;;;;;;;0.00;0.00;;;;;;;;;;1751738;28;20523;-65
2023/05/17 01:08:09;;;;;;;0.00;0.00;;;;;;;;;;1750040;28;20200;-65
2023/05/17 01:09:01;;;;;;;0.00;0.00;;;;;;;;;;1745117;28;20204;-65
2023/05/17 01:09:52;;;;;;;0.00;0.00;;;;;;;;;;1750125;28;20212;-66
2023/05/17 01:10:50;;;;;;;0.00;0.00;;;;;;;;;;1745119;28;20665;-66
2023/05/17 01:11:45;;;;;;;0.00;0.00;;;;;;;;;;1748469;28;20257;-65
2023/05/17 01:12:42;;;;;;;0.00;0.00;;;;;;;;;;1745676;28;20204;-66
2023/05/17 01:13:35;;;;;;;0.00;0.00;;;;;;;;;;1747279;28;20604;-66
2023/05/17 01:14:34;;;;;;;0.00;0.00;;;;;;;;;;1747798;28;20199;-65
2023/05/17 01:15:27;;;;;;;0.00;0.00;;;;;;;;;;1745659;28;20362;-66
2023/05/17 01:16:22;;;;;;;0.00;0.00;;;;;;;;;;1751038;28;20201;-66
2023/05/17 01:17:17;;;;;;;0.00;0.00;;;;;;;;;;1745687;28;20292;-65
2023/05/17 01:18:12;;;;;;;0.00;0.00;;;;;;;;;;1749210;28;20226;-65
2023/05/17 01:19:11;;;;;;;0.08;0.08;;;;;;;;;;1749685;28;20210;-66
2023/05/17 01:20:06;;;;;;;0.00;0.00;;;;;;;;;;1747907;28;20604;-65
2023/05/17 01:20:59;;;;;;;0.00;0.00;;;;;;;;;;1744198;28;20198;-64
2023/05/17 01:21:56;;;;;;;0.00;0.00;;;;;;;;;;1748030;28;20290;-66
2023/05/17 01:22:52;;;;;;;0.00;0.00;;;;;;;;;;1751784;28;20197;-65
2023/05/17 01:23:45;;;;;;;0.00;0.00;;;;;;;;;;1746757;28;20214;-65
2023/05/17 01:24:44;;;;;;;0.00;0.00;;;;;;;;;;1751615;28;20221;-65
2023/05/17 01:25:40;;;;;;;0.00;0.00;;;;;;;;;;1745708;28;20209;-65
2023/05/17 01:26:42;;;;;;;0.00;0.00;;;;;;;;;;1750846;28;20199;-63
2023/05/17 01:27:35;;;;;;;0.05;0.05;;;;;;;;;;1745864;28;20200;-66
2023/05/17 01:28:28;;;;;;;0.00;0.00;;;;;;;;;;1748777;28;20205;-65
2023/05/17 01:29:20;;;;;;;0.05;0.05;;;;;;;;;;1746394;28;20265;-64
2023/05/17 01:30:13;;;;;;;0.00;0.00;;;;;;;;;;1751683;28;20206;-62
2023/05/17 01:31:05;;;;;;;0.05;0.05;;;;;;;;;;1749101;28;20556;-65
2023/05/17 01:31:57;;;;;;;0.00;0.00;;;;;;;;;;1750888;28;20208;-64
2023/05/17 01:32:49;;;;;;;0.00;0.00;;;;;;;;;;1750144;28;20195;-66
2023/05/17 01:33:40;;;;;;;0.00;0.00;;;;;;;;;;1746663;28;20703;-65
2023/05/17 01:34:32;;;;;;;0.00;0.00;;;;;;;;;;1748165;28;20350;-64
2023/05/17 01:35:24;;;;;;;0.00;0.00;;;;;;;;;;1750625;28;20203;-65
2023/05/17 01:36:16;;;;;;;0.00;0.00;;;;;;;;;;1751210;28;20768;-65
2023/05/17 01:37:07;;;;;;;0.00;0.00;;;;;;;;;;1751021;28;20249;-65
2023/05/17 01:37:59;;;;;;;0.00;0.00;;;;;;;;;;1750085;28;20206;-64
2023/05/17 01:38:50;;;;;;;0.00;0.00;;;;;;;;;;1745800;28;20255;-65
2023/05/17 01:39:42;;;;;;;0.00;0.00;;;;;;;;;;1749693;28;20262;-65
2023/05/17 01:40:35;;;;;;;0.00;0.00;;;;;;;;;;1745314;28;20810;-63
2023/05/17 01:41:28;;;;;;;0.00;0.00;;;;;;;;;;1751498;28;20205;-66
2023/05/17 01:42:21;;;;;;;0.00;0.00;;;;;;;;;;1745048;28;20279;-65
2023/05/17 01:43:16;;;;;;;0.00;0.00;;;;;;;;;;1749980;28;20298;-66
2023/05/17 01:44:10;;;;;;;0.00;0.00;;;;;;;;;;1749330;28;20220;-65
2023/05/17 01:45:06;;;;;;;0.00;0.00;;;;;;;;;;1751121;28;20587;-65
2023/05/17 01:46:03;;;;;;;0.00;0.00;;;;;;;;;;1751639;28;20216;-65
2023/05/17 01:46:59;;;;;;;0.00;0.00;;;;;;;;;;1749473;28;20219;-66
2023/05/17 01:47:53;;;;;;;0.00;0.00;;;;;;;;;;1750346;28;20204;-65
2023/05/17 01:48:46;;;;;;;0.00;0.00;;;;;;;;;;1746243;28;20617;-66
2023/05/17 01:49:38;;;;;;;0.10;0.10;;;;;;;;;;1748053;28;20257;-65
2023/05/17 01:50:31;;;;;;;0.00;0.00;;;;;;;;;;1744877;28;20199;-66
2023/05/17 01:51:23;;;;;;;0.00;0.00;;;;;;;;;;1749840;28;20329;-66
2023/05/17 01:52:17;;;;;;;0.00;0.00;;;;;;;;;;1750725;28;20206;-66
2023/05/17 01:53:10;;;;;;;0.00;0.00;;;;;;;;;;1750660;28;20208;-65
2023/05/17 01:54:10;;;;;;;0.00;0.00;;;;;;;;;;1748838;28;20207;-65
2023/05/17 01:55:04;;;;;;;0.00;0.00;;;;;;;;;;1750034;28;20206;-66
2023/05/17 01:55:57;;;;;;;0.00;0.00;;;;;;;;;;1749933;28;20288;-66
2023/05/17 01:56:54;;;;;;;0.00;0.00;;;;;;;;;;1750423;28;20644;-65
2023/05/17 01:57:49;;;;;;;0.00;0.00;;;;;;;;;;1750344;28;20833;-66
2023/05/17 01:58:44;;;;;;;0.00;0.00;;;;;;;;;;1746805;28;20256;-66
2023/05/17 01:59:38;;;;;;;0.00;0.00;;;;;;;;;;1747794;28;20232;-66
2023/05/17 02:00:29;;;;;;;0.00;0.00;;;;;;;;;;1748265;28;20206;-65
2023/05/17 02:01:21;;;;;;;0.00;0.00;;;;;;;;;;1750482;28;20204;-66
2023/05/17 02:02:13;;;;;;;0.00;0.00;;;;;;;;;;1745203;28;20221;-65
2023/05/17 02:03:05;;;;;;;0.00;0.00;;;;;;;;;;1749032;28;20201;-65
2023/05/17 02:03:56;;;;;;;0.00;0.00;;;;;;;;;;1748023;28;20207;-65
2023/05/17 02:04:50;;;;;;;0.00;0.00;;;;;;;;;;1750548;28;20241;-65
2023/05/17 02:05:41;;;;;;;0.00;0.00;;;;;;;;;;1750553;28;20209;-66
2023/05/17 02:06:33;;;;;;;0.00;0.00;;;;;;;;;;1749597;28;20200;-66
2023/05/17 02:07:24;;;;;;;0.00;0.00;;;;;;;;;;1747366;28;20201;-65
2023/05/17 02:08:16;;;;;;;0.10;0.10;;;;;;;;;;1749883;28;20207;-65
2023/05/17 02:09:07;;;;;;;0.00;0.00;;;;;;;;;;1749303;28;20695;-65
2023/05/17 02:09:59;;;;;;;0.00;0.00;;;;;;;;;;1749606;28;20296;-67
2023/05/17 02:10:50;;;;;;;0.00;0.00;;;;;;;;;;1751444;28;20731;-65
2023/05/17 02:11:42;;;;;;;0.00;0.00;;;;;;;;;;1750460;28;20474;-65
2023/05/17 02:12:33;;;;;;;0.00;0.00;;;;;;;;;;1745674;28;20287;-65
2023/05/17 02:13:26;;;;;;;0.00;0.00;;;;;;;;;;1748793;28;20208;-66
2023/05/17 02:14:18;;;;;;;0.00;0.00;;;;;;;;;;1751848;28;20265;-66
2023/05/17 02:15:10;;;;;;;0.00;0.00;;;;;;;;;;1750733;28;20228;-63
2023/05/17 02:16:01;;;;;;;0.00;0.00;;;;;;;;;;1750185;28;20297;-65
2023/05/17 02:16:53;;;;;;;0.00;0.00;;;;;;;;;;1747951;28;20207;-66
2023/05/17 02:17:45;;;;;;;0.00;0.00;;;;;;;;;;1746628;28;20261;-65
2023/05/17 02:18:39;;;;;;;0.00;0.00;;;;;;;;;;1748349;28;20233;-65
2023/05/17 02:19:30;;;;;;;0.00;0.00;;;;;;;;;;1748428;28;20213;-65
2023/05/17 02:20:22;;;;;;;0.00;0.00;;;;;;;;;;1751590;28;20210;-65
2023/05/17 02:21:13;;;;;;;0.00;0.00;;;;;;;;;;1749334;28;20207;-65
2023/05/17 02:22:05;;;;;;;0.00;0.00;;;;;;;;;;1750495;28;20199;-65
2023/05/17 02:22:56;;;;;;;0.00;0.00;;;;;;;;;;1750360;28;20274;-65
2023/05/17 02:23:48;;;;;;;0.00;0.00;;;;;;;;;;1745643;28;20208;-66
2023/05/17 02:24:39;;;;;;;0.00;0.00;;;;;;;;;;1748019;28;20284;-65
2023/05/17 02:25:31;;;;;;;0.00;0.00;;;;;;;;;;1751305;28;20255;-65
2023/05/17 02:26:22;;;;;;;0.00;0.00;;;;;;;;;;1749417;28;20633;-65
2023/05/17 02:27:13;;;;;;;0.00;0.00;;;;;;;;;;1750550;28;20611;-65
2023/05/17 02:28:05;;;;;;;0.10;0.10;;;;;;;;;;1750169;28;20289;-65
2023/05/17 02:28:57;;;;;;;0.00;0.00;;;;;;;;;;1748060;28;20212;-65
2023/05/17 02:29:49;;;;;;;0.00;0.00;;;;;;;;;;1750990;28;20743;-65
2023/05/17 02:30:40;;;;;;;0.00;0.00;;;;;;;;;;1750594;28;20257;-65
2023/05/17 02:31:32;;;;;;;0.00;0.00;;;;;;;;;;1749644;28;20204;-66
2023/05/17 02:32:23;;;;;;;0.00;0.00;;;;;;;;;;1750708;28;20262;-65
2023/05/17 02:33:15;;;;;;;0.00;0.00;;;;;;;;;;1749369;28;20199;-65
2023/05/17 02:34:06;;;;;;;0.00;0.00;;;;;;;;;;1749005;28;20266;-64
2023/05/17 02:34:57;;;;;;;0.00;0.00;;;;;;;;;;1747562;28;20996;-66
2023/05/17 02:35:49;;;;;;;0.10;0.10;;;;;;;;;;1744832;28;20274;-65
2023/05/17 02:36:43;;;;;;;0.00;0.00;;;;;;;;;;1748639;28;20211;-65
2023/05/17 02:37:35;;;;;;;0.10;0.10;;;;;;;;;;1745881;28;20200;-65
2023/05/17 02:38:26;;;;;;;0.00;0.00;;;;;;;;;;1747860;28;20698;-65
2023/05/17 02:39:18;;;;;;;0.00;0.00;;;;;;;;;;1746155;28;20210;-66
2023/05/17 02:40:10;;;;;;;0.00;0.00;;;;;;;;;;1749360;28;20519;-65
2023/05/17 02:41:02;;;;;;;0.00;0.00;;;;;;;;;;1750831;28;20245;-66
2023/05/17 02:41:53;;;;;;;0.00;0.00;;;;;;;;;;1746674;28;20357;-65
2023/05/17 02:42:45;;;;;;;0.00;0.00;;;;;;;;;;1746271;28;20195;-65
2023/05/17 02:43:36;;;;;;;0.03;0.03;;;;;;;;;;1747477;28;20711;-64
2023/05/17 02:44:30;;;;;;;0.00;0.00;;;;;;;;;;1750735;28;20212;-65
2023/05/17 02:45:21;;;;;;;0.00;0.00;;;;;;;;;;1749566;28;20277;-64
2023/05/17 02:46:13;;;;;;;0.00;0.00;;;;;;;;;;1749252;28;20867;-65
2023/05/17 02:47:04;;;;;;;0.00;0.00;;;;;;;;;;1750068;28;20213;-65
2023/05/17 02:47:56;;;;;;;0.00;0.00;;;;;;;;;;1750679;28;20657;-65
2023/05/17 02:48:47;;;;;;;0.00;0.00;;;;;;;;;;1747405;28;20261;-65
2023/05/17 02:49:39;;;;;;;0.00;0.00;;;;;;;;;;1750459;28;20241;-65
2023/05/17 02:50:30;;;;;;;0.00;0.00;;;;;;;;;;1744893;28;20200;-66
2023/05/17 02:51:22;;;;;;;0.00;0.00;;;;;;;;;;1748416;28;20208;-65
2023/05/17 02:52:13;;;;;;;0.00;0.00;;;;;;;;;;1750448;28;20223;-66
2023/05/17 02:53:05;;;;;;;0.00;0.00;;;;;;;;;;1750446;28;20201;-65
2023/05/17 02:53:56;;;;;;;0.00;0.00;;;;;;;;;;1747793;28;20204;-66
2023/05/17 02:54:47;;;;;;;0.00;0.00;;;;;;;;;;1748845;28;20718;-65
2023/05/17 02:55:39;;;;;;;0.00;0.00;;;;;;;;;;1751456;28;20444;-66
2023/05/17 02:56:31;;;;;;;0.00;0.00;;;;;;;;;;1750337;28;20672;-65
2023/05/17 02:57:23;;;;;;;0.00;0.00;;;;;;;;;;1744607;28;20248;-65
2023/05/17 02:58:14;;;;;;;0.00;0.00;;;;;;;;;;1748589;28;20810;-65
2023/05/17 02:59:06;;;;;;;0.00;0.00;;;;;;;;;;1744514;28;20331;-65
2023/05/17 02:59:58;;;;;;;0.00;0.00;;;;;;;;;;1749182;28;21018;-65
2023/05/17 03:00:51;;;;;;;0.00;0.00;;;;;;;;;;1747325;28;20584;-65
2023/05/17 03:01:42;;;;;;;0.00;0.00;;;;;;;;;;1749281;28;20563;-65
2023/05/17 03:02:34;;;;;;;0.00;0.00;;;;;;;;;;1745645;28;20196;-65
2023/05/17 03:03:25;;;;;;;0.00;0.00;;;;;;;;;;1748016;28;20710;-65
2023/05/17 03:04:19;;;;;;;0.00;0.00;;;;;;;;;;1745482;28;20201;-65
2023/05/17 03:05:10;;;;;;;0.00;0.00;;;;;;;;;;1754147;22;20224;-76
2023/05/17 03:06:03;;;;;;;0.00;0.00;;;;;;;;;;1744970;28;20214;-74
2023/05/17 03:06:54;;;;;;;0.00;0.00;;;;;;;;;;1744156;28;20686;-75
2023/05/17 03:07:45;;;;;;;0.10;0.10;;;;;;;;;;1743925;28;20201;-75
2023/05/17 03:08:37;;;;;;;0.00;0.00;;;;;;;;;;1745237;28;20294;-75
2023/05/17 03:09:29;;;;;;;0.00;0.00;;;;;;;;;;1743670;28;20212;-75
2023/05/17 03:10:21;;;;;;;0.00;0.00;;;;;;;;;;1739626;28;20775;-75
2023/05/17 03:11:12;;;;;;;0.00;0.00;;;;;;;;;;1744573;28;20478;-75
2023/05/17 03:12:04;;;;;;;0.00;0.00;;;;;;;;;;1745226;28;20210;-75
2023/05/17 03:12:55;;;;;;;0.00;0.00;;;;;;;;;;1744873;28;20243;-75
2023/05/17 03:13:50;;;;;;;0.00;0.00;;;;;;;;;;1745098;28;20212;-75
2023/05/17 03:14:42;;;;;;;0.00;0.00;;;;;;;;;;1744842;28;20209;-75
2023/05/17 03:15:34;;;;;;;0.03;0.03;;;;;;;;;;1745813;28;20204;-75
2023/05/17 03:16:26;;;;;;;0.00;0.00;;;;;;;;;;1744858;28;20215;-75
2023/05/17 03:17:17;;;;;;;0.03;0.03;;;;;;;;;;1744006;28;20679;-75
2023/05/17 03:18:09;;;;;;;0.00;0.00;;;;;;;;;;1744389;28;20384;-75
2023/05/17 03:19:00;;;;;;;0.00;0.00;;;;;;;;;;1746283;28;20292;-75
2023/05/17 03:19:52;;;;;;;0.00;0.00;;;;;;;;;;1746170;28;20221;-75
2023/05/17 03:20:43;;;;;;;0.00;0.00;;;;;;;;;;1753101;28;20619;-75
2023/05/17 03:21:35;;;;;;;0.00;0.00;;;;;;;;;;1746290;28;20694;-75
2023/05/17 03:22:26;;;;;;;0.00;0.00;;;;;;;;;;1739961;28;20205;-76
2023/05/17 03:23:18;;;;;;;0.00;0.00;;;;;;;;;;1746119;28;20668;-77
2023/05/17 03:24:10;;;;;;;0.00;0.00;;;;;;;;;;1746214;28;20335;-77
2023/05/17 03:25:04;;;;;;;0.00;0.00;;;;;;;;;;1746216;28;20204;-77
2023/05/17 03:25:55;;;;;;;0.08;0.08;;;;;;;;;;1742673;28;20622;-77
2023/05/17 03:26:47;;;;;;;0.00;0.00;;;;;;;;;;1745183;28;20510;-77
2023/05/17 03:27:38;;;;;;;0.00;0.00;;;;;;;;;;1745967;28;20260;-77
2023/05/17 03:28:30;;;;;;;0.10;0.10;;;;;;;;;;1747292;28;20191;-77
2023/05/17 03:29:21;;;;;;;0.00;0.00;;;;;;;;;;1746386;28;20217;-77
2023/05/17 03:30:13;;;;;;;0.03;0.03;;;;;;;;;;1746530;28;20692;-77
2023/05/17 03:31:06;;;;;;;0.05;0.05;;;;;;;;;;1739973;28;20543;-77
2023/05/17 03:31:58;;;;;;;0.00;0.00;;;;;;;;;;1741309;28;22187;-77
2023/05/17 03:32:49;;;;;;;0.00;0.00;;;;;;;;;;1743912;28;20587;-77
2023/05/17 03:33:41;;;;;;;0.00;0.00;;;;;;;;;;1746749;28;20230;-77
2023/05/17 03:34:32;;;;;;;0.00;0.00;;;;;;;;;;1743606;28;20210;-77
2023/05/17 03:35:24;;;;;;;0.00;0.00;;;;;;;;;;1747040;28;20209;-77
2023/05/17 03:36:16;;;;;;;0.00;0.00;;;;;;;;;;1745818;28;20208;-77
2023/05/17 03:37:07;;;;;;;0.00;0.00;;;;;;;;;;1746855;28;20210;-77
2023/05/17 03:37:58;;;;;;;0.00;0.00;;;;;;;;;;1746119;28;20258;-77
2023/05/17 03:38:49;;;;;;;0.00;0.00;;;;;;;;;;1746437;28;20216;-77
2023/05/17 03:39:41;;;;;;;0.00;0.00;;;;;;;;;;1746275;28;20219;-77
2023/05/17 03:40:32;;;;;;;0.00;0.00;;;;;;;;;;1747196;28;20242;-77
2023/05/17 03:41:24;;;;;;;0.00;0.00;;;;;;;;;;1746432;28;20548;-77
2023/05/17 03:42:15;;;;;;;0.00;0.00;;;;;;;;;;1746569;28;20207;-77
2023/05/17 03:43:07;;;;;;;0.10;0.10;;;;;;;;;;1746713;28;20208;-77
2023/05/17 03:43:58;;;;;;;0.00;0.00;;;;;;;;;;1746649;28;20327;-77
2023/05/17 03:44:50;;;;;;;0.00;0.00;;;;;;;;;;1745857;28;20209;-77
2023/05/17 03:45:41;;;;;;;0.00;0.00;;;;;;;;;;1747119;28;20208;-76
2023/05/17 03:46:35;;;;;;;0.00;0.00;;;;;;;;;;1746078;28;20731;-76
2023/05/17 03:47:26;;;;;;;0.00;0.00;;;;;;;;;;1746439;28;20209;-76
2023/05/17 03:48:17;;;;;;;0.00;0.00;;;;;;;;;;1745700;28;20213;-76
2023/05/17 03:49:09;;;;;;;0.00;0.00;;;;;;;;;;1745939;28;20207;-76
2023/05/17 03:50:00;;;;;;;0.00;0.00;;;;;;;;;;1745517;28;20591;-76
2023/05/17 03:50:51;;;;;;;0.00;0.00;;;;;;;;;;1746341;28;20202;-76
2023/05/17 03:51:43;;;;;;;0.00;0.00;;;;;;;;;;1745791;28;20213;-76
2023/05/17 03:52:35;;;;;;;0.10;0.10;;;;;;;;;;1746224;28;20213;-76
2023/05/17 03:53:27;;;;;;;0.00;0.00;;;;;;;;;;1745438;28;20223;-76
2023/05/17 03:54:18;;;;;;;0.00;0.00;;;;;;;;;;1746206;28;20242;-76
2023/05/17 03:55:10;;;;;;;0.10;0.10;;;;;;;;;;1745727;28;20235;-76
2023/05/17 03:56:01;;;;;;;0.00;0.00;;;;;;;;;;1746040;28;20262;-76
2023/05/17 03:56:53;;;;;;;0.00;0.00;;;;;;;;;;1746033;28;20260;-76
2023/05/17 03:57:44;;;;;;;0.00;0.00;;;;;;;;;;1745777;28;20580;-76
2023/05/17 03:58:36;;;;;;;0.00;0.00;;;;;;;;;;1746540;28;20235;-75
2023/05/17 03:59:27;;;;;;;0.00;0.00;;;;;;;;;;1745635;28;20285;-76
2023/05/17 04:00:21;;;;;;;0.00;0.00;;;;;;;;;;1744884;28;20286;-76
2023/05/17 04:01:12;;;;;;;0.00;0.00;;;;;;;;;;1743378;28;20571;-76
2023/05/17 04:02:04;;;;;;;0.00;0.00;;;;;;;;;;1746152;28;20204;-76
2023/05/17 04:02:56;;;;;;;0.00;0.00;;;;;;;;;;1745644;28;20208;-75
2023/05/17 04:03:47;;;;;;;0.00;0.00;;;;;;;;;;1746094;28;20720;-75
2023/05/17 04:04:39;;;;;;;0.00;0.00;;;;;;;;;;1745720;28;20209;-76
2023/05/17 04:05:31;;;;;;;0.00;0.00;;;;;;;;;;1739068;28;20210;-76
2023/05/17 04:06:23;;;;;;;0.00;0.00;;;;;;;;;;1738632;28;20285;-76
2023/05/17 04:07:14;;;;;;;0.10;0.10;;;;;;;;;;1739221;28;20351;-76
2023/05/17 04:08:06;;;;;;;0.05;0.05;;;;;;;;;;1737068;28;20207;-75
2023/05/17 04:08:58;;;;;;;0.00;0.00;;;;;;;;;;1735381;28;20637;-76
2023/05/17 04:09:50;;;;;;;0.00;0.00;;;;;;;;;;1738547;28;20210;-76
2023/05/17 04:10:42;;;;;;;0.00;0.00;;;;;;;;;;1739618;28;20206;-76
2023/05/17 04:11:34;;;;;;;0.00;0.00;;;;;;;;;;1742267;28;20690;-76
2023/05/17 04:12:25;;;;;;;0.00;0.00;;;;;;;;;;1739441;28;20209;-75
2023/05/17 04:13:17;;;;;;;0.00;0.00;;;;;;;;;;1738855;28;20443;-75
2023/05/17 04:14:08;;;;;;;0.00;0.00;;;;;;;;;;1738965;28;20210;-75
2023/05/17 04:15:00;;;;;;;0.00;0.00;;;;;;;;;;1738787;28;20477;-75
2023/05/17 04:15:51;;;;;;;0.10;0.10;;;;;;;;;;1739172;28;20216;-76
2023/05/17 04:16:43;;;;;;;0.00;0.00;;;;;;;;;;1738762;28;20289;-76
2023/05/17 04:17:35;;;;;;;0.28;0.28;;;;;;;;;;1739235;28;20676;-76
2023/05/17 04:18:28;;;;;;;0.10;0.10;;;;;;;;;;1738789;28;21782;-75
2023/05/17 04:19:19;;;;;;;0.00;0.00;;;;;;;;;;1739007;28;20208;-76
2023/05/17 04:20:11;;;;;;;0.00;0.00;;;;;;;;;;1738957;28;20213;-76
2023/05/17 04:21:02;;;;;;;0.00;0.00;;;;;;;;;;1738774;28;20211;-75
2023/05/17 04:21:54;;;;;;;0.00;0.00;;;;;;;;;;1738902;28;20324;-75
2023/05/17 04:22:45;;;;;;;0.00;0.00;;;;;;;;;;1738837;28;20204;-75
2023/05/17 04:23:38;;;;;;;0.00;0.00;;;;;;;;;;1739583;28;20258;-75
2023/05/17 04:24:29;;;;;;;0.00;0.00;;;;;;;;;;1738710;28;20221;-75
2023/05/17 04:25:22;;;;;;;0.10;0.10;;;;;;;;;;1739641;28;20200;-75
2023/05/17 04:26:13;;;;;;;0.08;0.08;;;;;;;;;;1739885;28;20211;-75
2023/05/17 04:27:06;;;;;;;0.10;0.10;;;;;;;;;;1740753;28;20322;-75
2023/05/17 04:27:57;;;;;;;0.00;0.00;;;;;;;;;;1736782;28;20708;-75
2023/05/17 04:28:49;;;;;;;0.00;0.00;;;;;;;;;;1739192;28;20214;-75
2023/05/17 04:29:40;;;;;;;0.00;0.00;;;;;;;;;;1736695;28;20243;-75
2023/05/17 04:30:33;;;;;;;0.25;0.25;;;;;;;;;;1739707;28;20211;-75
2023/05/17 04:31:24;;;;;;;0.00;0.00;;;;;;;;;;1738609;28;20555;-76
2023/05/17 04:32:16;;;;;;;0.00;0.00;;;;;;;;;;1738912;28;20258;-76
2023/05/17 04:33:08;;;;;;;0.00;0.00;;;;;;;;;;1738378;28;20307;-76
2023/05/17 04:34:01;;;;;;;0.10;0.10;;;;;;;;;;1739267;28;20291;-76
2023/05/17 04:34:52;;;;;;;0.00;0.00;;;;;;;;;;1737158;28;20210;-76
2023/05/17 04:35:44;;;;;;;0.00;0.00;;;;;;;;;;1739590;28;20844;-76
2023/05/17 04:36:35;;;;;;;0.00;0.00;;;;;;;;;;1738669;28;20240;-76
2023/05/17 04:37:27;;;;;;;0.00;0.00;;;;;;;;;;1739007;28;20214;-76
2023/05/17 04:38:18;;;;;;;0.00;0.00;;;;;;;;;;1737450;28;20273;-76
2023/05/17 04:39:10;;;;;;;0.00;0.00;;;;;;;;;;1738951;28;20641;-76
2023/05/17 04:40:02;;;;;;;0.10;0.10;;;;;;;;;;1738787;28;20228;-76
2023/05/17 04:40:54;;;;;;;0.00;0.00;;;;;;;;;;1738758;28;20735;-76
2023/05/17 04:41:45;;;;;;;0.00;0.00;;;;;;;;;;1738540;28;20205;-76
2023/05/17 04:42:37;;;;;;;0.00;0.00;;;;;;;;;;1739237;28;20287;-76
2023/05/17 04:43:28;;;;;;;0.00;0.00;;;;;;;;;;1738709;28;20219;-76
2023/05/17 04:44:20;;;;;;;0.10;0.10;;;;;;;;;;1738889;28;20246;-75
2023/05/17 04:45:12;;;;;;;0.00;0.00;;;;;;;;;;1738921;28;20274;-76
2023/05/17 04:46:05;;;;;;;0.00;0.00;;;;;;;;;;1738707;28;20215;-76
2023/05/17 04:46:56;;;;;;;0.00;0.00;;;;;;;;;;1738806;28;20212;-76
2023/05/17 04:47:49;;;;;;;0.00;0.00;;;;;;;;;;1738411;28;20245;-76
2023/05/17 04:48:42;;;;;;;0.00;0.00;;;;;;;;;;1739291;28;20232;-76
2023/05/17 04:49:34;;;;;;;0.00;0.00;;;;;;;;;;1733860;28;20204;-76
2023/05/17 04:50:25;;;;;;;0.00;0.00;;;;;;;;;;1739348;28;20553;-76
2023/05/17 04:51:17;;;;;;;0.00;0.00;;;;;;;;;;1738229;28;20206;-76
2023/05/17 04:52:08;;;;;;;0.00;0.00;;;;;;;;;;1738911;28;20260;-76
2023/05/17 04:53:00;;;;;;;0.00;0.00;;;;;;;;;;1738346;28;20303;-76
2023/05/17 04:53:51;;;;;;;0.00;0.00;;;;;;;;;;1738904;28;20727;-76
2023/05/17 04:54:43;;;;;;;0.10;0.10;;;;;;;;;;1738514;28;20202;-76
2023/05/17 04:55:34;;;;;;;0.00;0.00;;;;;;;;;;1739548;28;20286;-75
2023/05/17 04:56:26;;;;;;;0.00;0.00;;;;;;;;;;1738656;28;20638;-75
2023/05/17 04:57:17;;;;;;;0.00;0.00;;;;;;;;;;1739011;28;20216;-75
2023/05/17 04:58:09;;;;;;;0.00;0.00;;;;;;;;;;1738464;28;20238;-75
2023/05/17 04:59:01;;;;;;;0.00;0.00;;;;;;;;;;1739163;28;20286;-75
2023/05/17 04:59:53;;;;;;;0.00;0.00;;;;;;;;;;1738227;28;20229;-75
2023/05/17 05:00:45;;;;;;;0.00;0.00;;;;;;;;;;1737166;28;20260;-75
2023/05/17 05:01:37;;;;;;;0.00;0.00;;;;;;;;;;1737833;28;20411;-75
2023/05/17 05:02:28;;;;;;;0.00;0.00;;;;;;;;;;1737969;28;20257;-75
2023/05/17 05:03:20;;;;;;;0.00;0.00;;;;;;;;;;1738548;28;20262;-75
2023/05/17 05:04:12;;;;;;;0.00;0.00;;;;;;;;;;1738814;28;20242;-75
2023/05/17 05:05:08;;;;;;;0.00;0.00;;;;;;;;;;1742348;28;20235;-75
2023/05/17 05:05:59;;;;;;;0.00;0.00;;;;;;;;;;1745581;28;20205;-75
2023/05/17 05:06:51;;;;;;;0.00;0.00;;;;;;;;;;1745639;28;20245;-75
2023/05/17 05:07:42;;;;;;;0.00;0.00;;;;;;;;;;1742048;28;20211;-75
2023/05/17 05:08:34;;;;;;;0.00;0.00;;;;;;;;;;1745930;28;20207;-76
2023/05/17 05:09:25;;;;;;;0.00;0.00;;;;;;;;;;1745481;28;20295;-76
2023/05/17 05:10:17;;;;;;;0.05;0.05;;;;;;;;;;1745875;28;20206;-76
2023/05/17 05:11:08;;;;;;;0.00;0.00;;;;;;;;;;1745506;28;20565;-76
2023/05/17 05:12:00;;;;;;;0.00;0.00;;;;;;;;;;1745477;28;20230;-75